Regina — LX2278 — position and weather

sailwx.info

Track history (hours):
 
Tides and Currents Weather Stations Pressure Air Temp Water Temp Dewpoint Dewpoint Depression Visibility Wind Speed Wind Dir Waves Ship Positions

Regina

Last reported at 2017-Dec-17 02:30 UTC. Time now 2017-Dec-17 02:35 UTC.
Position N 44°33' E 022°37'.

Length 110 m.

Type: Tanker. MMSI: 252010424.

Date/timePositionNaut miles runAvg speedWind from/ knotsBaromVisibWave heightAir tempDewpointWater temp
2017-Dec-17 02:30N 44°33' E 022°37'0 0.0
2017-Dec-17 02:01N 44°33' E 022°37'0 0.0
2017-Dec-17 01:30N 44°33' E 022°37'0 0.0
2017-Dec-17 01:01N 44°33' E 022°37'0 0.0
2017-Dec-17 00:31N 44°33' E 022°37'0 0.0
2017-Dec-17 00:00N 44°33' E 022°37'0 0.0
2017-Dec-16 23:31N 44°33' E 022°37'0 0.0
2017-Dec-16 23:00N 44°33' E 022°37'0 0.0
2017-Dec-16 22:30N 44°33' E 022°37'0 0.0
2017-Dec-16 22:00N 44°33' E 022°37'1 2.2
2017-Dec-16 21:31N 44°33' E 022°35'3 5.9
2017-Dec-16 21:00N 44°30' E 022°34'3 5.3
2017-Dec-16 20:31N 44°28' E 022°31'3 5.2
2017-Dec-16 20:01N 44°28' E 022°27'3 6.6
2017-Dec-16 19:31N 44°25' E 022°30'3 6.6
2017-Dec-16 19:00N 44°22' E 022°31'3 5.9
2017-Dec-16 18:30N 44°19' E 022°33'1 1.3
2017-Dec-16 18:00N 44°19' E 022°34'1 1.7
2017-Dec-16 17:30N 44°19' E 022°35'1 2.3
2017-Dec-16 17:01N 44°18' E 022°36'2 4.7
2017-Dec-16 16:31N 44°17' E 022°39'3 5.3
2017-Dec-16 16:00N 44°15' E 022°41'2 4.8
2017-Dec-16 15:30N 44°13' E 022°41'3 5.0
2017-Dec-16 15:00N 44°12' E 022°44'3 5.5
2017-Dec-16 14:30N 44°10' E 022°47'3 6.1
2017-Dec-16 14:00N 44°08' E 022°51'3 5.9
2017-Dec-16 13:30N 44°07' E 022°54'3 5.6
2017-Dec-16 13:00N 44°06' E 022°58'3 5.9
2017-Dec-16 12:30N 44°05' E 023°02'3 5.2
2017-Dec-16 12:00N 44°02' E 023°02'3 5.3
2017-Dec-16 11:30N 44°01' E 022°59'3 5.7
2017-Dec-16 11:00N 43°60' E 022°56'8771693.4
2017-Dec-16 10:29N 51°42' E 004°25'4 7.5
2017-Dec-16 10:01N 51°42' E 004°31'8751744.7
2017-Dec-16 09:30N 43°53' E 022°50'8751753.9
2017-Dec-16 09:01N 51°48' E 004°37'4 7.4
2017-Dec-16 08:31N 51°50' E 004°32'4 8.1
2017-Dec-16 08:01N 51°50' E 004°25'4 7.3
2017-Dec-16 07:30N 51°52' E 004°20'8991137.7
2017-Dec-16 06:43N 43°49' E 023°10'3 6.2
2017-Dec-16 06:19N 43°50' E 023°13'2 6.0
2017-Dec-16 06:00N 43°51' E 023°16'903999.4
2017-Dec-16 05:06N 51°53' E 004°19'0 0.0
2017-Dec-16 04:34N 51°53' E 004°19'0 0.1
2017-Dec-16 04:27N 51°53' E 004°19'0 0.0
2017-Dec-16 03:55N 51°53' E 004°19'0 0.0
2017-Dec-16 03:23N 51°53' E 004°19'0 0.0
2017-Dec-16 02:58N 51°53' E 004°19'0 0.0
2017-Dec-16 02:26N 51°53' E 004°19'0 0.0
2017-Dec-16 01:58N 51°53' E 004°19'0 0.0
2017-Dec-16 01:30N 51°53' E 004°19'0 0.0
2017-Dec-16 00:56N 51°53' E 004°19'0 0.0
2017-Dec-16 00:00N 51°53' E 004°19'0 0.0
2017-Dec-15 23:29N 51°53' E 004°19'0 0.0
2017-Dec-15 22:51N 51°53' E 004°19'0 0.0
2017-Dec-15 22:17N 51°53' E 004°19'0 0.0
2017-Dec-15 21:23N 51°53' E 004°19'0 0.0
2017-Dec-15 20:49N 51°53' E 004°19'0 0.0
2017-Dec-15 20:27N 51°53' E 004°19'0 0.0
2017-Dec-15 19:04N 51°53' E 004°19'0 0.0
2017-Dec-15 18:57N 51°53' E 004°19'0 0.0
2017-Dec-15 16:43N 51°53' E 004°19'0 0.0
2017-Dec-15 16:25N 51°53' E 004°19'0 0.0
2017-Dec-15 14:40N 51°53' E 004°19'0 0.0
2017-Dec-15 14:17N 51°53' E 004°19'0 0.0
2017-Dec-15 13:54N 51°53' E 004°19'0 0.0
2017-Dec-15 13:30N 51°53' E 004°19'0 0.0
2017-Dec-15 12:57N 51°53' E 004°19'0 0.0
2017-Dec-15 12:26N 51°53' E 004°19'0 0.0
2017-Dec-15 11:54N 51°53' E 004°19'0 0.0
2017-Dec-15 11:30N 51°53' E 004°19'0 0.0
2017-Dec-15 10:59N 51°53' E 004°19'0 0.0
2017-Dec-15 10:24N 51°53' E 004°19'0 0.0
2017-Dec-15 09:36N 51°53' E 004°19'0 0.0
2017-Dec-15 09:28N 51°53' E 004°19'0 0.0
2017-Dec-15 08:56N 51°53' E 004°19'0 0.0
2017-Dec-15 08:10N 51°53' E 004°19'0 0.0
2017-Dec-15 07:52N 51°53' E 004°19'0 0.0
2017-Dec-15 07:29N 51°53' E 004°19'0 0.0
2017-Dec-15 06:58N 51°53' E 004°19'0 0.0
2017-Dec-15 06:17N 51°53' E 004°19'0 0.0
2017-Dec-15 05:54N 51°53' E 004°19'0 0.0
2017-Dec-15 05:30N 51°53' E 004°19'0 0.0
2017-Dec-15 04:59N 51°53' E 004°19'0 0.0
2017-Dec-15 04:24N 51°53' E 004°19'0 0.0
2017-Dec-15 03:52N 51°53' E 004°19'0 0.0
2017-Dec-15 02:26N 51°53' E 004°19'0 0.0
2017-Dec-15 00:56N 51°53' E 004°19'0 0.0
2017-Dec-15 00:27N 51°53' E 004°19'0 0.0
2017-Dec-14 18:29N 51°53' E 004°19'0 0.0
2017-Dec-14 17:54N 51°53' E 004°19'0 0.0
2017-Dec-14 17:15N 51°53' E 004°19'0 0.0
2017-Dec-14 16:49N 51°53' E 004°19'0 0.0
2017-Dec-14 16:17N 51°53' E 004°19'0 0.0
2017-Dec-14 15:54N 51°53' E 004°19'0 0.0
2017-Dec-14 14:43N 51°53' E 004°19'0 0.0
2017-Dec-14 14:16N 51°53' E 004°19'0 0.0
2017-Dec-14 14:00N 51°53' E 004°19'0 0.0
2017-Dec-14 13:29N 51°53' E 004°19'0 0.0
2017-Dec-14 12:58N 51°53' E 004°19'0 0.0
2017-Dec-14 12:18N 51°53' E 004°19'0 0.0
2017-Dec-14 11:55N 51°53' E 004°19'0 0.0
2017-Dec-14 11:29N 51°53' E 004°19'0 0.0
2017-Dec-14 10:49N 51°53' E 004°19'0 0.0
2017-Dec-14 10:25N 51°53' E 004°19'0 0.0
2017-Dec-14 09:55N 51°53' E 004°19'0 0.0
2017-Dec-14 09:30N 51°53' E 004°19'0 0.0
2017-Dec-14 08:42N 51°53' E 004°19'0 0.0
2017-Dec-14 08:27N 51°53' E 004°19'0 0.0
2017-Dec-14 08:00N 51°53' E 004°19'0 0.0
2017-Dec-14 07:28N 51°53' E 004°19'0 0.0
2017-Dec-14 06:57N 51°53' E 004°19'0 0.0
2017-Dec-14 06:30N 51°53' E 004°19'0 0.0
2017-Dec-14 05:53N 51°53' E 004°19'0 0.0
2017-Dec-14 05:23N 51°53' E 004°19'0 0.0
2017-Dec-14 04:56N 51°53' E 004°19'0 0.0
2017-Dec-14 04:24N 51°53' E 004°19'0 0.0
2017-Dec-14 03:57N 51°53' E 004°19'0 0.0
2017-Dec-14 03:30N 51°53' E 004°19'0 0.0
2017-Dec-14 02:51N 51°53' E 004°19'0 0.0
2017-Dec-14 02:25N 51°53' E 004°19'0 0.0
2017-Dec-14 01:53N 51°53' E 004°19'0 0.0
2017-Dec-14 01:26N 51°53' E 004°19'0 0.0
2017-Dec-14 00:56N 51°53' E 004°19'0 0.0
2017-Dec-14 00:24N 51°53' E 004°19'0 0.0
2017-Dec-13 23:55N 51°53' E 004°19'0 0.0
2017-Dec-13 23:22N 51°53' E 004°19'0 0.0
2017-Dec-13 22:58N 51°53' E 004°19'0 0.0
2017-Dec-13 22:24N 51°53' E 004°19'0 0.0
2017-Dec-13 21:54N 51°53' E 004°19'0 0.0
2017-Dec-13 21:30N 51°53' E 004°19'0 0.0
2017-Dec-13 20:58N 51°53' E 004°19'0 0.0
2017-Dec-13 20:24N 51°53' E 004°19'0 0.0
2017-Dec-13 19:46N 51°53' E 004°19'0 0.0
2017-Dec-13 19:30N 51°53' E 004°19'0 0.0
2017-Dec-13 18:59N 51°53' E 004°19'0 0.0
2017-Dec-13 18:24N 51°53' E 004°19'0 0.0
2017-Dec-13 17:55N 51°53' E 004°19'0 0.0
2017-Dec-13 17:28N 51°53' E 004°19'0 0.0
2017-Dec-13 16:56N 51°53' E 004°19'0 0.0
2017-Dec-13 16:17N 51°53' E 004°19'0 0.0
2017-Dec-13 15:53N 51°53' E 004°19'0 0.0
2017-Dec-13 15:29N 51°53' E 004°19'0 0.0
2017-Dec-13 14:49N 51°53' E 004°19'0 0.0
2017-Dec-13 14:25N 51°53' E 004°19'0 0.0
2017-Dec-13 13:53N 51°53' E 004°19'0 0.0
2017-Dec-13 13:29N 51°53' E 004°19'0 0.0
2017-Dec-13 12:57N 51°53' E 004°19'10571318.4
2017-Dec-13 12:09N 44°17' E 028°05'1 6.5
2017-Dec-13 12:01N 44°16' E 028°06'10572110.1
2017-Dec-13 11:30N 51°53' E 004°19'0 0.0
2017-Dec-13 11:00N 51°53' E 004°19'0 0.0
2017-Dec-13 10:30N 51°53' E 004°19'0 0.0
2017-Dec-13 10:00N 51°53' E 004°19'0 0.0
2017-Dec-13 09:30N 51°53' E 004°19'0 0.0
2017-Dec-13 09:00N 51°53' E 004°19'0 0.0
2017-Dec-13 08:30N 51°53' E 004°19'0 0.0
2017-Dec-13 08:00N 51°53' E 004°19'0 0.0
2017-Dec-13 07:30N 51°53' E 004°19'0 0.0
2017-Dec-13 07:00N 51°53' E 004°19'0 0.0
2017-Dec-13 06:30N 51°53' E 004°19'0 0.0
2017-Dec-13 06:00N 51°53' E 004°19'0 0.0
2017-Dec-13 05:30N 51°53' E 004°19'0 0.0
2017-Dec-13 05:00N 51°53' E 004°19'0 0.0
2017-Dec-13 04:30N 51°53' E 004°19'0 0.0
2017-Dec-13 04:00N 51°53' E 004°19'0 0.0
2017-Dec-13 03:30N 51°53' E 004°19'0 0.0
2017-Dec-13 03:00N 51°53' E 004°19'0 0.0
2017-Dec-13 02:30N 51°53' E 004°19'0 0.0
2017-Dec-13 02:00N 51°53' E 004°19'0 0.0
2017-Dec-13 01:30N 51°53' E 004°19'0 0.0
2017-Dec-13 01:00N 51°53' E 004°19'0 0.0
2017-Dec-13 00:30N 51°53' E 004°19'0 0.0
2017-Dec-13 00:00N 51°53' E 004°19'0 0.0
2017-Dec-12 23:30N 51°53' E 004°19'0 0.0
2017-Dec-12 23:00N 51°53' E 004°19'0 0.0
2017-Dec-12 22:30N 51°53' E 004°19'0 0.0
2017-Dec-12 22:00N 51°53' E 004°19'0 0.0
2017-Dec-12 21:30N 51°53' E 004°19'0 0.0
2017-Dec-12 21:00N 51°53' E 004°19'0 0.0
2017-Dec-12 20:30N 51°53' E 004°19'0 0.0
2017-Dec-12 20:00N 51°53' E 004°19'0 0.0
2017-Dec-12 19:30N 51°53' E 004°19'0 0.0
2017-Dec-12 19:00N 51°53' E 004°19'0 0.0
2017-Dec-12 18:30N 51°53' E 004°19'0 0.0
2017-Dec-12 18:00N 51°53' E 004°19'0 0.0
2017-Dec-12 17:30N 51°53' E 004°19'0 0.0
2017-Dec-12 17:00N 51°53' E 004°19'0 0.0
2017-Dec-12 16:30N 51°53' E 004°19'0 0.0
2017-Dec-12 16:00N 51°53' E 004°19'0 0.0
2017-Dec-12 15:30N 51°53' E 004°19'0 0.0
2017-Dec-12 15:00N 51°53' E 004°19'0 0.0
2017-Dec-12 14:30N 51°53' E 004°19'0 0.0
2017-Dec-12 14:00N 51°53' E 004°19'0 0.0
2017-Dec-12 13:30N 51°53' E 004°19'0 0.0
2017-Dec-12 13:00N 51°53' E 004°19'0 0.0
2017-Dec-12 12:30N 51°53' E 004°19'0 0.0
2017-Dec-12 12:00N 51°53' E 004°19'0 0.0
2017-Dec-12 11:30N 51°53' E 004°19'0 0.0
2017-Dec-12 11:00N 51°53' E 004°19'0 0.0
2017-Dec-12 10:30N 51°53' E 004°19'0 0.0
2017-Dec-12 10:00N 51°53' E 004°19'0 0.0
2017-Dec-12 09:30N 51°53' E 004°19'0 0.0
2017-Dec-12 09:00N 51°53' E 004°19'0 0.0
2017-Dec-12 08:30N 51°53' E 004°19'0 0.0
2017-Dec-12 08:00N 51°53' E 004°19'0 0.0
2017-Dec-12 07:30N 51°53' E 004°19'0 0.0
2017-Dec-12 07:00N 51°53' E 004°19'0 0.0
2017-Dec-12 06:30N 51°53' E 004°19'0 0.0
2017-Dec-12 06:00N 51°53' E 004°19'0 0.1
2017-Dec-12 05:30N 51°53' E 004°19'0 0.0
2017-Dec-12 05:00N 51°53' E 004°19'0 0.0
2017-Dec-12 04:30N 51°53' E 004°19'0 0.0
2017-Dec-12 04:00N 51°53' E 004°19'0 0.0
2017-Dec-12 03:30N 51°53' E 004°19'0 0.0
2017-Dec-12 03:00N 51°53' E 004°19'0 0.0
2017-Dec-12 02:30N 51°53' E 004°19'0 0.0
2017-Dec-12 02:00N 51°53' E 004°19'0 0.0
2017-Dec-12 01:30N 51°53' E 004°19'0 0.0
2017-Dec-12 01:00N 51°53' E 004°19'0 0.0
2017-Dec-12 00:30N 51°53' E 004°19'0 0.0
2017-Dec-12 00:00N 51°53' E 004°19'0 0.0
2017-Dec-11 23:30N 51°53' E 004°19'0 0.0
2017-Dec-11 23:00N 51°53' E 004°19'0 0.0
2017-Dec-11 22:30N 51°53' E 004°19'0 0.0
2017-Dec-11 22:00N 51°53' E 004°19'0 0.0
2017-Dec-11 21:30N 51°53' E 004°19'0 0.0
2017-Dec-11 21:00N 51°53' E 004°19'0 0.0
2017-Dec-11 20:30N 51°53' E 004°19'0 0.0
2017-Dec-11 19:59N 51°53' E 004°19'0 0.0
2017-Dec-11 19:30N 51°53' E 004°19'0 0.0
2017-Dec-11 18:59N 51°53' E 004°19'10752155.1
2017-Dec-11 18:29N 44°19' E 028°38'10752242.5
2017-Dec-11 18:00N 51°53' E 004°19'0 0.0
2017-Dec-11 17:30N 51°53' E 004°19'10752155.1
2017-Dec-11 17:01N 44°19' E 028°38'10752141.9
2017-Dec-11 16:30N 51°53' E 004°19'0 0.0
2017-Dec-11 16:00N 51°53' E 004°19'0 0.0
2017-Dec-11 15:30N 51°53' E 004°19'0 0.0
2017-Dec-11 15:00N 51°53' E 004°19'0 0.0
2017-Dec-11 14:30N 51°53' E 004°19'0 0.0
2017-Dec-11 14:00N 51°53' E 004°19'0 0.0
2017-Dec-11 13:30N 51°53' E 004°19'0 0.0
2017-Dec-11 13:00N 51°53' E 004°19'0 0.0
2017-Dec-11 12:30N 51°53' E 004°19'0 0.7
2017-Dec-11 12:00N 51°53' E 004°19'5 9.4
2017-Dec-11 11:30N 51°51' E 004°25'510.7
2017-Dec-11 11:00N 51°50' E 004°33'4 8.5
2017-Dec-11 10:30N 51°46' E 004°38'10612144.2
2017-Dec-11 10:01N 44°19' E 028°38'0 0.0
2017-Dec-11 09:31N 44°19' E 028°38'0 0.0
2017-Dec-11 09:01N 44°19' E 028°38'0 0.0
2017-Dec-11 08:31N 44°19' E 028°38'0 0.0
2017-Dec-11 08:00N 44°19' E 028°38'0 0.0
2017-Dec-11 07:31N 44°19' E 028°38'0 0.0
2017-Dec-11 07:00N 44°19' E 028°38'0 0.0
2017-Dec-11 06:31N 44°19' E 028°38'0 0.0
2017-Dec-11 06:01N 44°19' E 028°38'0 0.0
2017-Dec-11 05:31N 44°19' E 028°38'0 0.0
2017-Dec-11 05:01N 44°19' E 028°38'0 0.0
2017-Dec-11 04:30N 44°19' E 028°38'0 0.0
2017-Dec-11 04:00N 44°19' E 028°38'0 0.0
2017-Dec-11 03:30N 44°19' E 028°38'0 0.0
2017-Dec-11 03:00N 44°19' E 028°38'0 0.0
2017-Dec-11 02:30N 44°19' E 028°38'0 0.0
2017-Dec-11 02:01N 44°19' E 028°38'0 0.0
2017-Dec-11 01:31N 44°19' E 028°38'0 0.0
2017-Dec-11 01:00N 44°19' E 028°38'0 0.0
2017-Dec-11 00:30N 44°19' E 028°38'0 0.0
2017-Dec-11 00:01N 44°19' E 028°38'0 0.0
2017-Dec-10 23:31N 44°19' E 028°38'0 0.0
2017-Dec-10 23:01N 44°19' E 028°38'0 0.0
2017-Dec-10 22:31N 44°19' E 028°38'0 0.0
2017-Dec-10 22:00N 44°19' E 028°38'0 0.0
2017-Dec-10 21:30N 44°19' E 028°38'0 0.0
2017-Dec-10 21:01N 44°19' E 028°38'0 0.0
2017-Dec-10 20:31N 44°19' E 028°38'0 0.0
2017-Dec-10 20:00N 44°19' E 028°38'0 0.0
2017-Dec-10 19:30N 44°19' E 028°38'0 0.0
2017-Dec-10 19:01N 44°19' E 028°38'0 0.0
2017-Dec-10 18:30N 44°19' E 028°38'0 0.0
2017-Dec-10 18:01N 44°19' E 028°38'0 0.0
2017-Dec-10 17:31N 44°19' E 028°38'0 0.0
2017-Dec-10 17:01N 44°19' E 028°38'0 0.0
2017-Dec-10 16:31N 44°19' E 028°38'0 0.0
2017-Dec-10 16:01N 44°19' E 028°38'0 0.0
2017-Dec-10 15:31N 44°19' E 028°38'0 0.0
2017-Dec-10 15:01N 44°19' E 028°38'0 0.0
2017-Dec-10 14:30N 44°19' E 028°38'0 0.0
2017-Dec-10 14:00N 44°19' E 028°38'0 0.0
2017-Dec-10 13:31N 44°19' E 028°38'0 0.0
2017-Dec-10 13:00N 44°19' E 028°38'0 0.0
2017-Dec-10 12:31N 44°19' E 028°38'0 0.0
2017-Dec-10 12:01N 44°19' E 028°38'0 0.0
2017-Dec-10 11:31N 44°19' E 028°38'0 0.0
2017-Dec-10 11:00N 44°19' E 028°38'0 0.0
2017-Dec-10 10:31N 44°19' E 028°38'0 0.0
2017-Dec-10 10:01N 44°19' E 028°38'0 0.0
2017-Dec-10 09:31N 44°19' E 028°38'0 0.0
2017-Dec-10 09:01N 44°19' E 028°38'0 0.0
2017-Dec-10 08:31N 44°19' E 028°38'0 0.0
2017-Dec-10 08:01N 44°19' E 028°38'0 0.0
2017-Dec-10 07:31N 44°19' E 028°38'0 0.0
2017-Dec-10 07:01N 44°19' E 028°38'0 0.0
2017-Dec-10 06:31N 44°19' E 028°38'0 0.0
2017-Dec-10 06:01N 44°19' E 028°38'0 0.0
2017-Dec-10 05:31N 44°19' E 028°38'0 0.0
2017-Dec-10 05:01N 44°19' E 028°38'0 0.0
2017-Dec-10 04:31N 44°19' E 028°38'0 0.0
2017-Dec-10 04:01N 44°19' E 028°38'0 0.0
2017-Dec-10 03:31N 44°19' E 028°38'0 0.0
2017-Dec-10 03:01N 44°19' E 028°38'0 0.0
2017-Dec-10 02:31N 44°19' E 028°38'0 0.0
2017-Dec-10 02:01N 44°19' E 028°38'0 0.0
2017-Dec-10 01:31N 44°19' E 028°38'0 0.0
2017-Dec-10 01:01N 44°19' E 028°38'0 0.0
2017-Dec-10 00:31N 44°19' E 028°38'0 0.0
2017-Dec-10 00:00N 44°19' E 028°38'0 0.0
2017-Dec-09 23:31N 44°19' E 028°38'0 0.0
2017-Dec-09 23:01N 44°19' E 028°38'0 0.0
2017-Dec-09 22:31N 44°19' E 028°38'0 0.0
2017-Dec-09 22:01N 44°19' E 028°38'0 0.0
2017-Dec-09 21:31N 44°19' E 028°38'0 0.0
2017-Dec-09 21:01N 44°19' E 028°38'0 0.0
2017-Dec-09 20:30N 44°19' E 028°38'0 0.0
2017-Dec-09 20:01N 44°19' E 028°38'0 0.0
2017-Dec-09 19:30N 44°19' E 028°38'0 0.0
2017-Dec-09 19:01N 44°19' E 028°38'0 0.0
2017-Dec-09 18:31N 44°19' E 028°38'0 0.0
2017-Dec-09 18:01N 44°19' E 028°38'0 0.0
2017-Dec-09 17:30N 44°19' E 028°38'0 0.0
2017-Dec-09 17:00N 44°19' E 028°38'0 0.0
2017-Dec-09 16:31N 44°19' E 028°38'0 0.0
2017-Dec-09 16:01N 44°19' E 028°38'0 0.0
2017-Dec-09 15:30N 44°19' E 028°38'0 0.0
2017-Dec-09 15:00N 44°19' E 028°38'0 0.0
2017-Dec-09 14:31N 44°19' E 028°38'0 0.0
2017-Dec-09 14:01N 44°19' E 028°38'0 0.0
2017-Dec-09 13:31N 44°19' E 028°38'0 0.0
2017-Dec-09 13:01N 44°19' E 028°38'0 0.0
2017-Dec-09 12:31N 44°19' E 028°38'0 0.0
2017-Dec-09 12:00N 44°19' E 028°38'10682107.2
2017-Dec-09 11:30N 51°21' E 004°16'0 0.0
2017-Dec-09 10:59N 51°21' E 004°16'0 0.0
2017-Dec-09 10:30N 51°21' E 004°16'10682144.8
2017-Dec-09 10:01N 44°19' E 028°38'0 0.0
2017-Dec-09 09:31N 44°19' E 028°38'0 0.0
2017-Dec-09 09:01N 44°19' E 028°38'0 0.0
2017-Dec-09 08:31N 44°19' E 028°38'0 0.0
2017-Dec-09 08:00N 44°19' E 028°38'0 0.0
2017-Dec-09 07:31N 44°19' E 028°38'0 0.0
2017-Dec-09 07:00N 44°19' E 028°38'0 0.0
2017-Dec-09 06:29N 44°19' E 028°38'0 0.0
2017-Dec-09 05:57N 44°19' E 028°38'10672307.2
2017-Dec-09 05:29N 51°16' E 004°15'0 0.0
2017-Dec-09 04:59N 51°16' E 004°15'10671985.3
2017-Dec-09 04:27N 44°19' E 028°38'10672392.0
2017-Dec-09 04:00N 51°16' E 004°15'10671735.9
2017-Dec-09 03:24N 44°19' E 028°38'0 0.0
2017-Dec-09 03:00N 44°19' E 028°38'0 0.0
2017-Dec-09 02:31N 44°19' E 028°38'0 0.0
2017-Dec-09 02:01N 44°19' E 028°38'0 0.0
2017-Dec-09 01:31N 44°19' E 028°38'0 0.0
2017-Dec-09 01:01N 44°19' E 028°38'0 0.0
2017-Dec-09 00:31N 44°19' E 028°38'0 0.0
2017-Dec-09 00:01N 44°19' E 028°38'0 0.0
2017-Dec-08 23:31N 44°19' E 028°38'0 0.0
2017-Dec-08 23:01N 44°19' E 028°38'0 0.0
2017-Dec-08 22:29N 44°19' E 028°38'10672266.4
2017-Dec-08 22:00N 51°16' E 004°15'10672141.3
2017-Dec-08 21:31N 44°19' E 028°38'0 0.0
2017-Dec-08 21:01N 44°19' E 028°38'10672125.9
2017-Dec-08 20:30N 51°16' E 004°15'0 0.0
2017-Dec-08 20:00N 51°16' E 004°15'10672180.2
2017-Dec-08 19:31N 44°19' E 028°38'0 0.0
2017-Dec-08 19:00N 44°19' E 028°38'0 0.0
2017-Dec-08 18:31N 44°19' E 028°38'0 0.0
2017-Dec-08 18:00N 44°19' E 028°38'0 0.0
2017-Dec-08 17:30N 44°19' E 028°38'10672138.9
2017-Dec-08 17:00N 51°16' E 004°15'10672140.1
2017-Dec-08 16:30N 44°19' E 028°38'0 0.0
2017-Dec-08 16:01N 44°19' E 028°38'0 0.0
2017-Dec-08 15:22N 44°19' E 028°38'10673011.2
2017-Dec-08 15:00N 51°16' E 004°15'10671907.8
2017-Dec-08 14:27N 44°19' E 028°38'0 0.0
2017-Dec-08 13:54N 44°19' E 028°38'0 0.0
2017-Dec-08 13:31N 44°19' E 028°38'0 0.0
2017-Dec-08 13:01N 44°19' E 028°38'0 0.0
2017-Dec-08 12:31N 44°19' E 028°38'0 0.0
2017-Dec-08 12:00N 44°19' E 028°38'0 0.0
2017-Dec-08 11:28N 44°19' E 028°38'0 0.0
2017-Dec-08 11:01N 44°19' E 028°38'10672128.6
2017-Dec-08 10:30N 51°16' E 004°15'10672140.9
2017-Dec-08 10:01N 44°17' E 028°36'2 4.0
2017-Dec-08 09:29N 44°16' E 028°33'0 0.4
2017-Dec-08 09:01N 44°16' E 028°32'0 0.0
2017-Dec-08 08:30N 44°16' E 028°32'10662124.3
2017-Dec-08 08:00N 51°16' E 004°15'0 0.0
2017-Dec-08 07:30N 51°16' E 004°15'10621998.1
2017-Dec-08 06:59N 44°13' E 028°24'10622106.0
2017-Dec-08 06:28N 51°16' E 004°15'0 0.0
2017-Dec-08 06:00N 51°16' E 004°15'0 0.0
2017-Dec-08 05:30N 51°16' E 004°15'0 0.0
2017-Dec-08 05:00N 51°16' E 004°15'0 0.0
2017-Dec-08 04:30N 51°16' E 004°15'0 0.0
2017-Dec-08 04:00N 51°16' E 004°15'0 0.0
2017-Dec-08 03:30N 51°16' E 004°15'0 0.0
2017-Dec-08 03:00N 51°16' E 004°15'0 0.0
2017-Dec-08 02:30N 51°16' E 004°15'0 0.0
2017-Dec-08 02:00N 51°16' E 004°15'0 0.0
2017-Dec-08 01:30N 51°16' E 004°15'0 0.0
2017-Dec-08 01:00N 51°16' E 004°15'0 0.0
2017-Dec-08 00:30N 51°16' E 004°15'0 0.0
2017-Dec-08 00:00N 51°16' E 004°15'0 0.0
2017-Dec-07 23:30N 51°16' E 004°15'0 0.0
2017-Dec-07 23:00N 51°16' E 004°15'0 0.0
2017-Dec-07 22:30N 51°16' E 004°15'0 0.0
2017-Dec-07 22:00N 51°16' E 004°15'0 0.0
2017-Dec-07 21:30N 51°16' E 004°15'0 0.0
2017-Dec-07 21:00N 51°16' E 004°15'0 0.0
2017-Dec-07 20:30N 51°16' E 004°15'0 0.0
2017-Dec-07 20:00N 51°16' E 004°15'0 0.0
2017-Dec-07 19:30N 51°16' E 004°15'0 0.0
2017-Dec-07 19:00N 51°16' E 004°15'0 0.0
2017-Dec-07 18:30N 51°16' E 004°15'0 0.0
2017-Dec-07 18:00N 51°16' E 004°15'0 0.0
2017-Dec-07 17:30N 51°16' E 004°15'0 0.0
2017-Dec-07 17:00N 51°16' E 004°15'0 0.0
2017-Dec-07 16:30N 51°16' E 004°15'0 0.0
2017-Dec-07 16:00N 51°16' E 004°15'0 0.0
2017-Dec-07 15:30N 51°16' E 004°15'0 0.0
2017-Dec-07 15:00N 51°16' E 004°15'0 0.0
2017-Dec-07 14:30N 51°16' E 004°15'0 0.0
2017-Dec-07 14:00N 51°16' E 004°15'0 0.0
2017-Dec-07 13:30N 51°16' E 004°15'0 0.0
2017-Dec-07 13:00N 51°16' E 004°15'0 0.0
2017-Dec-07 12:30N 51°16' E 004°15'0 0.0
2017-Dec-07 12:00N 51°16' E 004°15'0 0.0
2017-Dec-07 11:30N 51°16' E 004°15'0 0.0
2017-Dec-07 11:00N 51°16' E 004°15'0 0.0
2017-Dec-07 10:30N 51°16' E 004°15'1 1.2
2017-Dec-07 10:00N 51°16' E 004°16'0 0.9
2017-Dec-07 09:30N 51°16' E 004°15'0 0.0
2017-Dec-07 09:00N 51°16' E 004°15'0 0.0
2017-Dec-07 08:30N 51°16' E 004°15'0 0.0
2017-Dec-07 08:00N 51°16' E 004°15'0 0.0
2017-Dec-07 07:30N 51°16' E 004°15'0 0.0
2017-Dec-07 07:00N 51°16' E 004°15'0 0.0
2017-Dec-07 06:30N 51°16' E 004°15'0 0.0
2017-Dec-07 06:00N 51°16' E 004°15'0 0.0
2017-Dec-07 05:30N 51°16' E 004°15'0 0.0
2017-Dec-07 05:00N 51°16' E 004°15'0 0.0
2017-Dec-07 04:30N 51°16' E 004°15'0 0.0
2017-Dec-07 04:00N 51°16' E 004°15'0 0.0
2017-Dec-07 03:30N 51°16' E 004°15'0 0.0
2017-Dec-07 03:00N 51°16' E 004°15'  
Track history (hours):
 
Tides and Currents Weather Stations Pressure Air Temp Water Temp Dewpoint Dewpoint Depression Visibility Wind Speed Wind Dir Waves Ship Positions

Regina

Last reported at 2017-Dec-17 02:30 UTC. Time now 2017-Dec-17 02:35 UTC.
Position N 44°33' E 022°37'.

Length 110 m.

Type: Tanker. MMSI: 252010424.

Date/timePositionNaut miles runAvg speedWind from/ knotsBaromVisibWave heightAir tempDewpointWater temp
2017-Dec-17 02:30N 44°33' E 022°37'0 0.0
2017-Dec-17 02:01N 44°33' E 022°37'0 0.0
2017-Dec-17 01:30N 44°33' E 022°37'0 0.0
2017-Dec-17 01:01N 44°33' E 022°37'0 0.0
2017-Dec-17 00:31N 44°33' E 022°37'0 0.0
2017-Dec-17 00:00N 44°33' E 022°37'0 0.0
2017-Dec-16 23:31N 44°33' E 022°37'0 0.0
2017-Dec-16 23:00N 44°33' E 022°37'0 0.0
2017-Dec-16 22:30N 44°33' E 022°37'0 0.0
2017-Dec-16 22:00N 44°33' E 022°37'1 2.2
2017-Dec-16 21:31N 44°33' E 022°35'3 5.9
2017-Dec-16 21:00N 44°30' E 022°34'3 5.3
2017-Dec-16 20:31N 44°28' E 022°31'3 5.2
2017-Dec-16 20:01N 44°28' E 022°27'3 6.6
2017-Dec-16 19:31N 44°25' E 022°30'3 6.6
2017-Dec-16 19:00N 44°22' E 022°31'3 5.9
2017-Dec-16 18:30N 44°19' E 022°33'1 1.3
2017-Dec-16 18:00N 44°19' E 022°34'1 1.7
2017-Dec-16 17:30N 44°19' E 022°35'1 2.3
2017-Dec-16 17:01N 44°18' E 022°36'2 4.7
2017-Dec-16 16:31N 44°17' E 022°39'3 5.3
2017-Dec-16 16:00N 44°15' E 022°41'2 4.8
2017-Dec-16 15:30N 44°13' E 022°41'3 5.0
2017-Dec-16 15:00N 44°12' E 022°44'3 5.5
2017-Dec-16 14:30N 44°10' E 022°47'3 6.1
2017-Dec-16 14:00N 44°08' E 022°51'3 5.9
2017-Dec-16 13:30N 44°07' E 022°54'3 5.6
2017-Dec-16 13:00N 44°06' E 022°58'3 5.9
2017-Dec-16 12:30N 44°05' E 023°02'3 5.2
2017-Dec-16 12:00N 44°02' E 023°02'3 5.3
2017-Dec-16 11:30N 44°01' E 022°59'3 5.7
2017-Dec-16 11:00N 43°60' E 022°56'8771693.4
2017-Dec-16 10:29N 51°42' E 004°25'4 7.5
2017-Dec-16 10:01N 51°42' E 004°31'8751744.7
2017-Dec-16 09:30N 43°53' E 022°50'8751753.9
2017-Dec-16 09:01N 51°48' E 004°37'4 7.4
2017-Dec-16 08:31N 51°50' E 004°32'4 8.1
2017-Dec-16 08:01N 51°50' E 004°25'4 7.3
2017-Dec-16 07:30N 51°52' E 004°20'8991137.7
2017-Dec-16 06:43N 43°49' E 023°10'3 6.2
2017-Dec-16 06:19N 43°50' E 023°13'2 6.0
2017-Dec-16 06:00N 43°51' E 023°16'903999.4
2017-Dec-16 05:06N 51°53' E 004°19'0 0.0
2017-Dec-16 04:34N 51°53' E 004°19'0 0.1
2017-Dec-16 04:27N 51°53' E 004°19'0 0.0
2017-Dec-16 03:55N 51°53' E 004°19'0 0.0
2017-Dec-16 03:23N 51°53' E 004°19'0 0.0
2017-Dec-16 02:58N 51°53' E 004°19'0 0.0
2017-Dec-16 02:26N 51°53' E 004°19'0 0.0
2017-Dec-16 01:58N 51°53' E 004°19'0 0.0
2017-Dec-16 01:30N 51°53' E 004°19'0 0.0
2017-Dec-16 00:56N 51°53' E 004°19'0 0.0
2017-Dec-16 00:00N 51°53' E 004°19'0 0.0
2017-Dec-15 23:29N 51°53' E 004°19'0 0.0
2017-Dec-15 22:51N 51°53' E 004°19'0 0.0
2017-Dec-15 22:17N 51°53' E 004°19'0 0.0
2017-Dec-15 21:23N 51°53' E 004°19'0 0.0
2017-Dec-15 20:49N 51°53' E 004°19'0 0.0
2017-Dec-15 20:27N 51°53' E 004°19'0 0.0
2017-Dec-15 19:04N 51°53' E 004°19'0 0.0
2017-Dec-15 18:57N 51°53' E 004°19'0 0.0
2017-Dec-15 16:43N 51°53' E 004°19'0 0.0
2017-Dec-15 16:25N 51°53' E 004°19'0 0.0
2017-Dec-15 14:40N 51°53' E 004°19'0 0.0
2017-Dec-15 14:17N 51°53' E 004°19'0 0.0
2017-Dec-15 13:54N 51°53' E 004°19'0 0.0
2017-Dec-15 13:30N 51°53' E 004°19'0 0.0
2017-Dec-15 12:57N 51°53' E 004°19'0 0.0
2017-Dec-15 12:26N 51°53' E 004°19'0 0.0
2017-Dec-15 11:54N 51°53' E 004°19'0 0.0
2017-Dec-15 11:30N 51°53' E 004°19'0 0.0
2017-Dec-15 10:59N 51°53' E 004°19'0 0.0
2017-Dec-15 10:24N 51°53' E 004°19'0 0.0
2017-Dec-15 09:36N 51°53' E 004°19'0 0.0
2017-Dec-15 09:28N 51°53' E 004°19'0 0.0
2017-Dec-15 08:56N 51°53' E 004°19'0 0.0
2017-Dec-15 08:10N 51°53' E 004°19'0 0.0
2017-Dec-15 07:52N 51°53' E 004°19'0 0.0
2017-Dec-15 07:29N 51°53' E 004°19'0 0.0
2017-Dec-15 06:58N 51°53' E 004°19'0 0.0
2017-Dec-15 06:17N 51°53' E 004°19'0 0.0
2017-Dec-15 05:54N 51°53' E 004°19'0 0.0
2017-Dec-15 05:30N 51°53' E 004°19'0 0.0
2017-Dec-15 04:59N 51°53' E 004°19'0 0.0
2017-Dec-15 04:24N 51°53' E 004°19'0 0.0
2017-Dec-15 03:52N 51°53' E 004°19'0 0.0
2017-Dec-15 02:26N 51°53' E 004°19'0 0.0
2017-Dec-15 00:56N 51°53' E 004°19'0 0.0
2017-Dec-15 00:27N 51°53' E 004°19'0 0.0
2017-Dec-14 18:29N 51°53' E 004°19'0 0.0
2017-Dec-14 17:54N 51°53' E 004°19'0 0.0
2017-Dec-14 17:15N 51°53' E 004°19'0 0.0
2017-Dec-14 16:49N 51°53' E 004°19'0 0.0
2017-Dec-14 16:17N 51°53' E 004°19'0 0.0
2017-Dec-14 15:54N 51°53' E 004°19'0 0.0
2017-Dec-14 14:43N 51°53' E 004°19'0 0.0
2017-Dec-14 14:16N 51°53' E 004°19'0 0.0
2017-Dec-14 14:00N 51°53' E 004°19'0 0.0
2017-Dec-14 13:29N 51°53' E 004°19'0 0.0
2017-Dec-14 12:58N 51°53' E 004°19'0 0.0
2017-Dec-14 12:18N 51°53' E 004°19'0 0.0
2017-Dec-14 11:55N 51°53' E 004°19'0 0.0
2017-Dec-14 11:29N 51°53' E 004°19'0 0.0
2017-Dec-14 10:49N 51°53' E 004°19'0 0.0
2017-Dec-14 10:25N 51°53' E 004°19'0 0.0
2017-Dec-14 09:55N 51°53' E 004°19'0 0.0
2017-Dec-14 09:30N 51°53' E 004°19'0 0.0
2017-Dec-14 08:42N 51°53' E 004°19'0 0.0
2017-Dec-14 08:27N 51°53' E 004°19'0 0.0
2017-Dec-14 08:00N 51°53' E 004°19'0 0.0
2017-Dec-14 07:28N 51°53' E 004°19'0 0.0
2017-Dec-14 06:57N 51°53' E 004°19'0 0.0
2017-Dec-14 06:30N 51°53' E 004°19'0 0.0
2017-Dec-14 05:53N 51°53' E 004°19'0 0.0
2017-Dec-14 05:23N 51°53' E 004°19'0 0.0
2017-Dec-14 04:56N 51°53' E 004°19'0 0.0
2017-Dec-14 04:24N 51°53' E 004°19'0 0.0
2017-Dec-14 03:57N 51°53' E 004°19'0 0.0
2017-Dec-14 03:30N 51°53' E 004°19'0 0.0
2017-Dec-14 02:51N 51°53' E 004°19'0 0.0
2017-Dec-14 02:25N 51°53' E 004°19'0 0.0
2017-Dec-14 01:53N 51°53' E 004°19'0 0.0
2017-Dec-14 01:26N 51°53' E 004°19'0 0.0
2017-Dec-14 00:56N 51°53' E 004°19'0 0.0
2017-Dec-14 00:24N 51°53' E 004°19'0 0.0
2017-Dec-13 23:55N 51°53' E 004°19'0 0.0
2017-Dec-13 23:22N 51°53' E 004°19'0 0.0
2017-Dec-13 22:58N 51°53' E 004°19'0 0.0
2017-Dec-13 22:24N 51°53' E 004°19'0 0.0
2017-Dec-13 21:54N 51°53' E 004°19'0 0.0
2017-Dec-13 21:30N 51°53' E 004°19'0 0.0
2017-Dec-13 20:58N 51°53' E 004°19'0 0.0
2017-Dec-13 20:24N 51°53' E 004°19'0 0.0
2017-Dec-13 19:46N 51°53' E 004°19'0 0.0
2017-Dec-13 19:30N 51°53' E 004°19'0 0.0
2017-Dec-13 18:59N 51°53' E 004°19'0 0.0
2017-Dec-13 18:24N 51°53' E 004°19'0 0.0
2017-Dec-13 17:55N 51°53' E 004°19'0 0.0
2017-Dec-13 17:28N 51°53' E 004°19'0 0.0
2017-Dec-13 16:56N 51°53' E 004°19'0 0.0
2017-Dec-13 16:17N 51°53' E 004°19'0 0.0
2017-Dec-13 15:53N 51°53' E 004°19'0 0.0
2017-Dec-13 15:29N 51°53' E 004°19'0 0.0
2017-Dec-13 14:49N 51°53' E 004°19'0 0.0
2017-Dec-13 14:25N 51°53' E 004°19'0 0.0
2017-Dec-13 13:53N 51°53' E 004°19'0 0.0
2017-Dec-13 13:29N 51°53' E 004°19'0 0.0
2017-Dec-13 12:57N 51°53' E 004°19'10571318.4
2017-Dec-13 12:09N 44°17' E 028°05'1 6.5
2017-Dec-13 12:01N 44°16' E 028°06'10572110.1
2017-Dec-13 11:30N 51°53' E 004°19'0 0.0
2017-Dec-13 11:00N 51°53' E 004°19'0 0.0
2017-Dec-13 10:30N 51°53' E 004°19'0 0.0
2017-Dec-13 10:00N 51°53' E 004°19'0 0.0
2017-Dec-13 09:30N 51°53' E 004°19'0 0.0
2017-Dec-13 09:00N 51°53' E 004°19'0 0.0
2017-Dec-13 08:30N 51°53' E 004°19'0 0.0
2017-Dec-13 08:00N 51°53' E 004°19'0 0.0
2017-Dec-13 07:30N 51°53' E 004°19'0 0.0
2017-Dec-13 07:00N 51°53' E 004°19'0 0.0
2017-Dec-13 06:30N 51°53' E 004°19'0 0.0
2017-Dec-13 06:00N 51°53' E 004°19'0 0.0
2017-Dec-13 05:30N 51°53' E 004°19'0 0.0
2017-Dec-13 05:00N 51°53' E 004°19'0 0.0
2017-Dec-13 04:30N 51°53' E 004°19'0 0.0
2017-Dec-13 04:00N 51°53' E 004°19'0 0.0
2017-Dec-13 03:30N 51°53' E 004°19'0 0.0
2017-Dec-13 03:00N 51°53' E 004°19'0 0.0
2017-Dec-13 02:30N 51°53' E 004°19'0 0.0
2017-Dec-13 02:00N 51°53' E 004°19'0 0.0
2017-Dec-13 01:30N 51°53' E 004°19'0 0.0
2017-Dec-13 01:00N 51°53' E 004°19'0 0.0
2017-Dec-13 00:30N 51°53' E 004°19'0 0.0
2017-Dec-13 00:00N 51°53' E 004°19'0 0.0
2017-Dec-12 23:30N 51°53' E 004°19'0 0.0
2017-Dec-12 23:00N 51°53' E 004°19'0 0.0
2017-Dec-12 22:30N 51°53' E 004°19'0 0.0
2017-Dec-12 22:00N 51°53' E 004°19'0 0.0
2017-Dec-12 21:30N 51°53' E 004°19'0 0.0
2017-Dec-12 21:00N 51°53' E 004°19'0 0.0
2017-Dec-12 20:30N 51°53' E 004°19'0 0.0
2017-Dec-12 20:00N 51°53' E 004°19'0 0.0
2017-Dec-12 19:30N 51°53' E 004°19'0 0.0
2017-Dec-12 19:00N 51°53' E 004°19'0 0.0
2017-Dec-12 18:30N 51°53' E 004°19'0 0.0
2017-Dec-12 18:00N 51°53' E 004°19'0 0.0
2017-Dec-12 17:30N 51°53' E 004°19'0 0.0
2017-Dec-12 17:00N 51°53' E 004°19'0 0.0
2017-Dec-12 16:30N 51°53' E 004°19'0 0.0
2017-Dec-12 16:00N 51°53' E 004°19'0 0.0
2017-Dec-12 15:30N 51°53' E 004°19'0 0.0
2017-Dec-12 15:00N 51°53' E 004°19'0 0.0
2017-Dec-12 14:30N 51°53' E 004°19'0 0.0
2017-Dec-12 14:00N 51°53' E 004°19'0 0.0
2017-Dec-12 13:30N 51°53' E 004°19'0 0.0
2017-Dec-12 13:00N 51°53' E 004°19'0 0.0
2017-Dec-12 12:30N 51°53' E 004°19'0 0.0
2017-Dec-12 12:00N 51°53' E 004°19'0 0.0
2017-Dec-12 11:30N 51°53' E 004°19'0 0.0
2017-Dec-12 11:00N 51°53' E 004°19'0 0.0
2017-Dec-12 10:30N 51°53' E 004°19'0 0.0
2017-Dec-12 10:00N 51°53' E 004°19'0 0.0
2017-Dec-12 09:30N 51°53' E 004°19'0 0.0
2017-Dec-12 09:00N 51°53' E 004°19'0 0.0
2017-Dec-12 08:30N 51°53' E 004°19'0 0.0
2017-Dec-12 08:00N 51°53' E 004°19'0 0.0
2017-Dec-12 07:30N 51°53' E 004°19'0 0.0
2017-Dec-12 07:00N 51°53' E 004°19'0 0.0
2017-Dec-12 06:30N 51°53' E 004°19'0 0.0
2017-Dec-12 06:00N 51°53' E 004°19'0 0.1
2017-Dec-12 05:30N 51°53' E 004°19'0 0.0
2017-Dec-12 05:00N 51°53' E 004°19'0 0.0
2017-Dec-12 04:30N 51°53' E 004°19'0 0.0
2017-Dec-12 04:00N 51°53' E 004°19'0 0.0
2017-Dec-12 03:30N 51°53' E 004°19'0 0.0
2017-Dec-12 03:00N 51°53' E 004°19'0 0.0
2017-Dec-12 02:30N 51°53' E 004°19'0 0.0
2017-Dec-12 02:00N 51°53' E 004°19'0 0.0
2017-Dec-12 01:30N 51°53' E 004°19'0 0.0
2017-Dec-12 01:00N 51°53' E 004°19'0 0.0
2017-Dec-12 00:30N 51°53' E 004°19'0 0.0
2017-Dec-12 00:00N 51°53' E 004°19'0 0.0
2017-Dec-11 23:30N 51°53' E 004°19'0 0.0
2017-Dec-11 23:00N 51°53' E 004°19'0 0.0
2017-Dec-11 22:30N 51°53' E 004°19'0 0.0
2017-Dec-11 22:00N 51°53' E 004°19'0 0.0
2017-Dec-11 21:30N 51°53' E 004°19'0 0.0
2017-Dec-11 21:00N 51°53' E 004°19'0 0.0
2017-Dec-11 20:30N 51°53' E 004°19'0 0.0
2017-Dec-11 19:59N 51°53' E 004°19'0 0.0
2017-Dec-11 19:30N 51°53' E 004°19'0 0.0
2017-Dec-11 18:59N 51°53' E 004°19'10752155.1
2017-Dec-11 18:29N 44°19' E 028°38'10752242.5
2017-Dec-11 18:00N 51°53' E 004°19'0 0.0
2017-Dec-11 17:30N 51°53' E 004°19'10752155.1
2017-Dec-11 17:01N 44°19' E 028°38'10752141.9
2017-Dec-11 16:30N 51°53' E 004°19'0 0.0
2017-Dec-11 16:00N 51°53' E 004°19'0 0.0
2017-Dec-11 15:30N 51°53' E 004°19'0 0.0
2017-Dec-11 15:00N 51°53' E 004°19'0 0.0
2017-Dec-11 14:30N 51°53' E 004°19'0 0.0
2017-Dec-11 14:00N 51°53' E 004°19'0 0.0
2017-Dec-11 13:30N 51°53' E 004°19'0 0.0
2017-Dec-11 13:00N 51°53' E 004°19'0 0.0
2017-Dec-11 12:30N 51°53' E 004°19'0 0.7
2017-Dec-11 12:00N 51°53' E 004°19'5 9.4
2017-Dec-11 11:30N 51°51' E 004°25'510.7
2017-Dec-11 11:00N 51°50' E 004°33'4 8.5
2017-Dec-11 10:30N 51°46' E 004°38'10612144.2
2017-Dec-11 10:01N 44°19' E 028°38'0 0.0
2017-Dec-11 09:31N 44°19' E 028°38'0 0.0
2017-Dec-11 09:01N 44°19' E 028°38'0 0.0
2017-Dec-11 08:31N 44°19' E 028°38'0 0.0
2017-Dec-11 08:00N 44°19' E 028°38'0 0.0
2017-Dec-11 07:31N 44°19' E 028°38'0 0.0
2017-Dec-11 07:00N 44°19' E 028°38'0 0.0
2017-Dec-11 06:31N 44°19' E 028°38'0 0.0
2017-Dec-11 06:01N 44°19' E 028°38'0 0.0
2017-Dec-11 05:31N 44°19' E 028°38'0 0.0
2017-Dec-11 05:01N 44°19' E 028°38'0 0.0
2017-Dec-11 04:30N 44°19' E 028°38'0 0.0
2017-Dec-11 04:00N 44°19' E 028°38'0 0.0
2017-Dec-11 03:30N 44°19' E 028°38'0 0.0
2017-Dec-11 03:00N 44°19' E 028°38'0 0.0
2017-Dec-11 02:30N 44°19' E 028°38'0 0.0
2017-Dec-11 02:01N 44°19' E 028°38'0 0.0
2017-Dec-11 01:31N 44°19' E 028°38'0 0.0
2017-Dec-11 01:00N 44°19' E 028°38'0 0.0
2017-Dec-11 00:30N 44°19' E 028°38'0 0.0
2017-Dec-11 00:01N 44°19' E 028°38'0 0.0
2017-Dec-10 23:31N 44°19' E 028°38'0 0.0
2017-Dec-10 23:01N 44°19' E 028°38'0 0.0
2017-Dec-10 22:31N 44°19' E 028°38'0 0.0
2017-Dec-10 22:00N 44°19' E 028°38'0 0.0
2017-Dec-10 21:30N 44°19' E 028°38'0 0.0
2017-Dec-10 21:01N 44°19' E 028°38'0 0.0
2017-Dec-10 20:31N 44°19' E 028°38'0 0.0
2017-Dec-10 20:00N 44°19' E 028°38'0 0.0
2017-Dec-10 19:30N 44°19' E 028°38'0 0.0
2017-Dec-10 19:01N 44°19' E 028°38'0 0.0
2017-Dec-10 18:30N 44°19' E 028°38'0 0.0
2017-Dec-10 18:01N 44°19' E 028°38'0 0.0
2017-Dec-10 17:31N 44°19' E 028°38'0 0.0
2017-Dec-10 17:01N 44°19' E 028°38'0 0.0
2017-Dec-10 16:31N 44°19' E 028°38'0 0.0
2017-Dec-10 16:01N 44°19' E 028°38'0 0.0
2017-Dec-10 15:31N 44°19' E 028°38'0 0.0
2017-Dec-10 15:01N 44°19' E 028°38'0 0.0
2017-Dec-10 14:30N 44°19' E 028°38'0 0.0
2017-Dec-10 14:00N 44°19' E 028°38'0 0.0
2017-Dec-10 13:31N 44°19' E 028°38'0 0.0
2017-Dec-10 13:00N 44°19' E 028°38'0 0.0
2017-Dec-10 12:31N 44°19' E 028°38'0 0.0
2017-Dec-10 12:01N 44°19' E 028°38'0 0.0
2017-Dec-10 11:31N 44°19' E 028°38'0 0.0
2017-Dec-10 11:00N 44°19' E 028°38'0 0.0
2017-Dec-10 10:31N 44°19' E 028°38'0 0.0
2017-Dec-10 10:01N 44°19' E 028°38'0 0.0
2017-Dec-10 09:31N 44°19' E 028°38'0 0.0
2017-Dec-10 09:01N 44°19' E 028°38'0 0.0
2017-Dec-10 08:31N 44°19' E 028°38'0 0.0
2017-Dec-10 08:01N 44°19' E 028°38'0 0.0
2017-Dec-10 07:31N 44°19' E 028°38'0 0.0
2017-Dec-10 07:01N 44°19' E 028°38'0 0.0
2017-Dec-10 06:31N 44°19' E 028°38'0 0.0
2017-Dec-10 06:01N 44°19' E 028°38'0 0.0
2017-Dec-10 05:31N 44°19' E 028°38'0 0.0
2017-Dec-10 05:01N 44°19' E 028°38'0 0.0
2017-Dec-10 04:31N 44°19' E 028°38'0 0.0
2017-Dec-10 04:01N 44°19' E 028°38'0 0.0
2017-Dec-10 03:31N 44°19' E 028°38'0 0.0
2017-Dec-10 03:01N 44°19' E 028°38'0 0.0
2017-Dec-10 02:31N 44°19' E 028°38'0 0.0
2017-Dec-10 02:01N 44°19' E 028°38'0 0.0
2017-Dec-10 01:31N 44°19' E 028°38'0 0.0
2017-Dec-10 01:01N 44°19' E 028°38'0 0.0
2017-Dec-10 00:31N 44°19' E 028°38'0 0.0
2017-Dec-10 00:00N 44°19' E 028°38'0 0.0
2017-Dec-09 23:31N 44°19' E 028°38'0 0.0
2017-Dec-09 23:01N 44°19' E 028°38'0 0.0
2017-Dec-09 22:31N 44°19' E 028°38'0 0.0
2017-Dec-09 22:01N 44°19' E 028°38'0 0.0
2017-Dec-09 21:31N 44°19' E 028°38'0 0.0
2017-Dec-09 21:01N 44°19' E 028°38'0 0.0
2017-Dec-09 20:30N 44°19' E 028°38'0 0.0
2017-Dec-09 20:01N 44°19' E 028°38'0 0.0
2017-Dec-09 19:30N 44°19' E 028°38'0 0.0
2017-Dec-09 19:01N 44°19' E 028°38'0 0.0
2017-Dec-09 18:31N 44°19' E 028°38'0 0.0
2017-Dec-09 18:01N 44°19' E 028°38'0 0.0
2017-Dec-09 17:30N 44°19' E 028°38'0 0.0
2017-Dec-09 17:00N 44°19' E 028°38'0 0.0
2017-Dec-09 16:31N 44°19' E 028°38'0 0.0
2017-Dec-09 16:01N 44°19' E 028°38'0 0.0
2017-Dec-09 15:30N 44°19' E 028°38'0 0.0
2017-Dec-09 15:00N 44°19' E 028°38'0 0.0
2017-Dec-09 14:31N 44°19' E 028°38'0 0.0
2017-Dec-09 14:01N 44°19' E 028°38'0 0.0
2017-Dec-09 13:31N 44°19' E 028°38'0 0.0
2017-Dec-09 13:01N 44°19' E 028°38'0 0.0
2017-Dec-09 12:31N 44°19' E 028°38'0 0.0
2017-Dec-09 12:00N 44°19' E 028°38'10682107.2
2017-Dec-09 11:30N 51°21' E 004°16'0 0.0
2017-Dec-09 10:59N 51°21' E 004°16'0 0.0
2017-Dec-09 10:30N 51°21' E 004°16'10682144.8
2017-Dec-09 10:01N 44°19' E 028°38'0 0.0
2017-Dec-09 09:31N 44°19' E 028°38'0 0.0
2017-Dec-09 09:01N 44°19' E 028°38'0 0.0
2017-Dec-09 08:31N 44°19' E 028°38'0 0.0
2017-Dec-09 08:00N 44°19' E 028°38'0 0.0
2017-Dec-09 07:31N 44°19' E 028°38'0 0.0
2017-Dec-09 07:00N 44°19' E 028°38'0 0.0
2017-Dec-09 06:29N 44°19' E 028°38'0 0.0
2017-Dec-09 05:57N 44°19' E 028°38'10672307.2
2017-Dec-09 05:29N 51°16' E 004°15'0 0.0
2017-Dec-09 04:59N 51°16' E 004°15'10671985.3
2017-Dec-09 04:27N 44°19' E 028°38'10672392.0
2017-Dec-09 04:00N 51°16' E 004°15'10671735.9
2017-Dec-09 03:24N 44°19' E 028°38'0 0.0
2017-Dec-09 03:00N 44°19' E 028°38'0 0.0
2017-Dec-09 02:31N 44°19' E 028°38'0 0.0
2017-Dec-09 02:01N 44°19' E 028°38'0 0.0
2017-Dec-09 01:31N 44°19' E 028°38'0 0.0
2017-Dec-09 01:01N 44°19' E 028°38'0 0.0
2017-Dec-09 00:31N 44°19' E 028°38'0 0.0
2017-Dec-09 00:01N 44°19' E 028°38'0 0.0
2017-Dec-08 23:31N 44°19' E 028°38'0 0.0
2017-Dec-08 23:01N 44°19' E 028°38'0 0.0
2017-Dec-08 22:29N 44°19' E 028°38'10672266.4
2017-Dec-08 22:00N 51°16' E 004°15'10672141.3
2017-Dec-08 21:31N 44°19' E 028°38'0 0.0
2017-Dec-08 21:01N 44°19' E 028°38'10672125.9
2017-Dec-08 20:30N 51°16' E 004°15'0 0.0
2017-Dec-08 20:00N 51°16' E 004°15'10672180.2
2017-Dec-08 19:31N 44°19' E 028°38'0 0.0
2017-Dec-08 19:00N 44°19' E 028°38'0 0.0
2017-Dec-08 18:31N 44°19' E 028°38'0 0.0
2017-Dec-08 18:00N 44°19' E 028°38'0 0.0
2017-Dec-08 17:30N 44°19' E 028°38'10672138.9
2017-Dec-08 17:00N 51°16' E 004°15'10672140.1
2017-Dec-08 16:30N 44°19' E 028°38'0 0.0
2017-Dec-08 16:01N 44°19' E 028°38'0 0.0
2017-Dec-08 15:22N 44°19' E 028°38'10673011.2
2017-Dec-08 15:00N 51°16' E 004°15'10671907.8
2017-Dec-08 14:27N 44°19' E 028°38'0 0.0
2017-Dec-08 13:54N 44°19' E 028°38'0 0.0
2017-Dec-08 13:31N 44°19' E 028°38'0 0.0
2017-Dec-08 13:01N 44°19' E 028°38'0 0.0
2017-Dec-08 12:31N 44°19' E 028°38'0 0.0
2017-Dec-08 12:00N 44°19' E 028°38'0 0.0
2017-Dec-08 11:28N 44°19' E 028°38'0 0.0
2017-Dec-08 11:01N 44°19' E 028°38'10672128.6
2017-Dec-08 10:30N 51°16' E 004°15'10672140.9
2017-Dec-08 10:01N 44°17' E 028°36'2 4.0
2017-Dec-08 09:29N 44°16' E 028°33'0 0.4
2017-Dec-08 09:01N 44°16' E 028°32'0 0.0
2017-Dec-08 08:30N 44°16' E 028°32'10662124.3
2017-Dec-08 08:00N 51°16' E 004°15'0 0.0
2017-Dec-08 07:30N 51°16' E 004°15'10621998.1
2017-Dec-08 06:59N 44°13' E 028°24'10622106.0
2017-Dec-08 06:28N 51°16' E 004°15'0 0.0
2017-Dec-08 06:00N 51°16' E 004°15'0 0.0
2017-Dec-08 05:30N 51°16' E 004°15'0 0.0
2017-Dec-08 05:00N 51°16' E 004°15'0 0.0
2017-Dec-08 04:30N 51°16' E 004°15'0 0.0
2017-Dec-08 04:00N 51°16' E 004°15'0 0.0
2017-Dec-08 03:30N 51°16' E 004°15'0 0.0
2017-Dec-08 03:00N 51°16' E 004°15'0 0.0
2017-Dec-08 02:30N 51°16' E 004°15'0 0.0
2017-Dec-08 02:00N 51°16' E 004°15'0 0.0
2017-Dec-08 01:30N 51°16' E 004°15'0 0.0
2017-Dec-08 01:00N 51°16' E 004°15'0 0.0
2017-Dec-08 00:30N 51°16' E 004°15'0 0.0
2017-Dec-08 00:00N 51°16' E 004°15'0 0.0
2017-Dec-07 23:30N 51°16' E 004°15'0 0.0
2017-Dec-07 23:00N 51°16' E 004°15'0 0.0
2017-Dec-07 22:30N 51°16' E 004°15'0 0.0
2017-Dec-07 22:00N 51°16' E 004°15'0 0.0
2017-Dec-07 21:30N 51°16' E 004°15'0 0.0
2017-Dec-07 21:00N 51°16' E 004°15'0 0.0
2017-Dec-07 20:30N 51°16' E 004°15'0 0.0
2017-Dec-07 20:00N 51°16' E 004°15'0 0.0
2017-Dec-07 19:30N 51°16' E 004°15'0 0.0
2017-Dec-07 19:00N 51°16' E 004°15'0 0.0
2017-Dec-07 18:30N 51°16' E 004°15'0 0.0
2017-Dec-07 18:00N 51°16' E 004°15'0 0.0
2017-Dec-07 17:30N 51°16' E 004°15'0 0.0
2017-Dec-07 17:00N 51°16' E 004°15'0 0.0
2017-Dec-07 16:30N 51°16' E 004°15'0 0.0
2017-Dec-07 16:00N 51°16' E 004°15'0 0.0
2017-Dec-07 15:30N 51°16' E 004°15'0 0.0
2017-Dec-07 15:00N 51°16' E 004°15'0 0.0
2017-Dec-07 14:30N 51°16' E 004°15'0 0.0
2017-Dec-07 14:00N 51°16' E 004°15'0 0.0
2017-Dec-07 13:30N 51°16' E 004°15'0 0.0
2017-Dec-07 13:00N 51°16' E 004°15'0 0.0
2017-Dec-07 12:30N 51°16' E 004°15'0 0.0
2017-Dec-07 12:00N 51°16' E 004°15'0 0.0
2017-Dec-07 11:30N 51°16' E 004°15'0 0.0
2017-Dec-07 11:00N 51°16' E 004°15'0 0.0
2017-Dec-07 10:30N 51°16' E 004°15'1 1.2
2017-Dec-07 10:00N 51°16' E 004°16'0 0.9
2017-Dec-07 09:30N 51°16' E 004°15'0 0.0
2017-Dec-07 09:00N 51°16' E 004°15'0 0.0
2017-Dec-07 08:30N 51°16' E 004°15'0 0.0
2017-Dec-07 08:00N 51°16' E 004°15'0 0.0
2017-Dec-07 07:30N 51°16' E 004°15'0 0.0
2017-Dec-07 07:00N 51°16' E 004°15'0 0.0
2017-Dec-07 06:30N 51°16' E 004°15'0 0.0
2017-Dec-07 06:00N 51°16' E 004°15'0 0.0
2017-Dec-07 05:30N 51°16' E 004°15'0 0.0
2017-Dec-07 05:00N 51°16' E 004°15'0 0.0
2017-Dec-07 04:30N 51°16' E 004°15'0 0.0
2017-Dec-07 04:00N 51°16' E 004°15'0 0.0
2017-Dec-07 03:30N 51°16' E 004°15'0 0.0
2017-Dec-07 03:00N 51°16' E 004°15'  

Dump ship's entire track history